Time;durP1;ratioP1;P1;durP2;ratioP2;P2;SDS_P1;SDS_P2;PMS_P1;PMS_P2;Temp;Humidity;BMP_temperature;BMP_pressure;BME280_temperature;BME280_humidity;BME280_pressure;Samples;Min_cycle;Max_cycle;Signal;HPM_P1;HPM_P2
2023/08/08 00:00:09;;;;;;;13.40;12.50;;;13.90;99.90;;;;;;5042658;28;20185;-40
2023/08/08 00:02:35;;;;;;;12.40;11.80;;;13.90;99.90;;;;;;5042123;28;20186;-41
2023/08/08 00:05:01;;;;;;;13.00;12.10;;;13.80;99.90;;;;;;5041321;28;20439;-40
2023/08/08 00:07:30;;;;;;;13.40;12.60;;;13.80;99.90;;;;;;5041374;28;20213;-40
2023/08/08 00:09:56;;;;;;;13.27;12.37;;;13.80;99.90;;;;;;5041991;28;20193;-41
2023/08/08 00:12:21;;;;;;;13.50;12.80;;;13.70;99.90;;;;;;5040960;28;20922;-40
2023/08/08 00:14:47;;;;;;;12.53;11.83;;;13.80;99.90;;;;;;5041838;28;20591;-40
2023/08/08 00:17:13;;;;;;;12.90;12.10;;;13.80;99.90;;;;;;5041072;28;20185;-41
2023/08/08 00:19:38;;;;;;;12.63;11.80;;;13.90;99.90;;;;;;5040516;28;20217;-39
2023/08/08 00:22:04;;;;;;;12.93;12.23;;;13.90;99.90;;;;;;5041831;28;20196;-53
2023/08/08 00:24:30;;;;;;;13.20;12.40;;;13.90;99.90;;;;;;5041682;28;20396;-47
2023/08/08 00:26:55;;;;;;;12.77;12.07;;;13.80;99.90;;;;;;5040589;28;20209;-51
2023/08/08 00:29:21;;;;;;;13.40;12.50;;;13.90;99.90;;;;;;5041094;28;20221;-53
2023/08/08 00:31:46;;;;;;;13.30;12.50;;;13.80;99.90;;;;;;5040845;28;20198;-47
2023/08/08 00:34:12;;;;;;;13.13;12.43;;;13.80;99.90;;;;;;5041595;28;20268;-50
2023/08/08 00:36:38;;;;;;;13.23;12.43;;;13.80;99.90;;;;;;5041234;28;20231;-49
2023/08/08 00:39:03;;;;;;;12.97;12.20;;;13.80;99.90;;;;;;5041727;28;20578;-53
2023/08/08 00:41:29;;;;;;;12.80;12.10;;;13.90;99.90;;;;;;5040490;28;20216;-53
2023/08/08 00:43:54;;;;;;;12.50;11.90;;;13.80;99.90;;;;;;5039852;28;20186;-53
2023/08/08 00:46:21;;;;;;;13.20;12.40;;;13.80;99.90;;;;;;5041345;28;20226;-53
2023/08/08 00:48:47;;;;;;;13.00;12.30;;;13.80;99.90;;;;;;5041357;28;20544;-48
2023/08/08 00:51:14;;;;;;;13.10;12.40;;;13.70;99.90;;;;;;5041128;28;20428;-53
2023/08/08 00:53:39;;;;;;;13.50;12.60;;;13.70;99.90;;;;;;5040013;28;20197;-53
2023/08/08 00:56:05;;;;;;;13.57;12.50;;;13.60;99.90;;;;;;5020773;28;20459;-48
2023/08/08 00:58:31;;;;;;;12.60;11.90;;;13.70;99.90;;;;;;5022300;28;20217;-52
2023/08/08 01:00:59;;;;;;;12.10;11.40;;;13.70;99.90;;;;;;5040898;28;20198;-56
2023/08/08 01:03:26;;;;;;;12.13;11.40;;;13.60;99.90;;;;;;5041072;28;20188;-46
2023/08/08 01:06:10;;;;;;;12.63;11.83;;;13.70;99.90;;;;;;5038266;28;20491;-52
2023/08/08 01:08:47;;;;;;;12.67;12.07;;;13.70;99.90;;;;;;5040338;28;20421;-55
2023/08/08 01:11:15;;;;;;;12.50;11.90;;;13.70;99.90;;;;;;5040715;28;20450;-55
2023/08/08 01:13:42;;;;;;;13.10;12.30;;;13.60;99.90;;;;;;5039300;28;20938;-52
2023/08/08 01:16:09;;;;;;;12.73;12.03;;;13.60;99.90;;;;;;5039390;28;20894;-54
2023/08/08 01:18:36;;;;;;;12.27;11.67;;;13.60;99.90;;;;;;5039650;28;20440;-52
2023/08/08 01:21:03;;;;;;;12.40;11.80;;;13.60;99.90;;;;;;5040440;28;20471;-49
2023/08/08 01:23:30;;;;;;;12.87;12.17;;;13.60;99.90;;;;;;5040563;28;20519;-55
2023/08/08 01:25:58;;;;;;;12.90;12.20;;;13.50;99.90;;;;;;5040084;28;20474;-54
2023/08/08 01:28:24;;;;;;;12.93;12.13;;;13.50;99.90;;;;;;5040190;28;20884;-50
2023/08/08 01:30:50;;;;;;;13.03;12.07;;;13.50;99.90;;;;;;5040620;28;20409;-56
2023/08/08 01:33:16;;;;;;;13.00;12.30;;;13.40;99.90;;;;;;5040015;28;20872;-51
2023/08/08 01:35:46;;;;;;;13.60;12.90;;;13.40;99.90;;;;;;5040200;28;20416;-52
2023/08/08 01:38:19;;;;;;;13.00;12.10;;;13.40;99.90;;;;;;5039139;28;20443;-54
2023/08/08 01:40:45;;;;;;;13.33;12.53;;;13.40;99.90;;;;;;5039675;28;20448;-54
2023/08/08 01:43:13;;;;;;;13.10;12.30;;;13.40;99.90;;;;;;5039355;28;20475;-52
2023/08/08 01:45:39;;;;;;;13.10;12.30;;;13.40;99.90;;;;;;5038285;28;20475;-52
2023/08/08 01:48:09;;;;;;;12.87;12.17;;;13.40;99.90;;;;;;5039312;28;21389;-47
2023/08/08 01:50:36;;;;;;;13.17;12.27;;;13.40;99.90;;;;;;5038650;28;20204;-54
2023/08/08 01:53:01;;;;;;;13.10;12.40;;;13.40;99.90;;;;;;5039697;28;20470;-49
2023/08/08 01:55:27;;;;;;;12.87;12.17;;;13.40;99.90;;;;;;5040174;28;21173;-53
2023/08/08 01:57:53;;;;;;;12.70;12.10;;;13.30;99.90;;;;;;5038295;28;20190;-54
2023/08/08 02:00:18;;;;;;;12.70;12.00;;;13.40;99.90;;;;;;5039052;28;20606;-46
2023/08/08 02:02:44;;;;;;;13.43;12.53;;;13.40;99.90;;;;;;5038828;28;20185;-52
2023/08/08 02:05:10;;;;;;;12.93;12.10;;;13.40;99.90;;;;;;5039465;28;20253;-52
2023/08/08 02:07:35;;;;;;;12.57;11.77;;;13.40;99.90;;;;;;5038720;28;20624;-54
2023/08/08 02:10:01;;;;;;;13.07;12.07;;;13.30;99.90;;;;;;5039012;28;20273;-53
2023/08/08 02:12:28;;;;;;;12.50;11.70;;;13.30;99.90;;;;;;5039806;28;20275;-51
2023/08/08 02:14:54;;;;;;;13.13;12.33;;;13.30;99.90;;;;;;5037539;28;20303;-48
2023/08/08 02:17:21;;;;;;;12.63;11.80;;;13.20;99.90;;;;;;5015356;28;20452;-50
2023/08/08 02:19:46;;;;;;;12.80;12.10;;;13.30;99.90;;;;;;5039581;28;20239;-47
2023/08/08 02:22:12;;;;;;;12.70;12.00;;;13.30;99.90;;;;;;5039317;28;20823;-54
2023/08/08 02:24:37;;;;;;;12.70;12.00;;;13.30;99.90;;;;;;5038058;28;20240;-51
2023/08/08 02:27:04;;;;;;;12.10;11.30;;;13.20;99.90;;;;;;5039574;28;20569;-53
2023/08/08 02:29:30;;;;;;;12.50;11.80;;;13.20;99.90;;;;;;5021432;28;20216;-54
2023/08/08 02:31:55;;;;;;;11.83;11.13;;;13.20;99.90;;;;;;5038743;28;20527;-46
2023/08/08 02:34:21;;;;;;;13.10;12.20;;;13.20;99.90;;;;;;5039354;28;20934;-53
2023/08/08 02:36:46;;;;;;;11.50;10.80;;;13.10;99.90;;;;;;5038627;28;20189;-50
2023/08/08 02:39:12;;;;;;;11.63;11.03;;;13.10;99.90;;;;;;5038827;28;20470;-54
2023/08/08 02:41:38;;;;;;;12.77;12.07;;;13.10;99.90;;;;;;5038770;28;20197;-54
2023/08/08 02:44:03;;;;;;;12.37;11.73;;;13.10;99.90;;;;;;5038185;28;20652;-52
2023/08/08 02:46:29;;;;;;;13.67;12.67;;;13.00;99.90;;;;;;5039339;28;20620;-47
2023/08/08 02:48:54;;;;;;;12.70;12.00;;;13.00;99.90;;;;;;5038960;28;20284;-54
2023/08/08 02:51:20;;;;;;;12.93;12.20;;;13.00;99.90;;;;;;5039990;28;20196;-51
2023/08/08 02:53:46;;;;;;;13.20;12.50;;;13.00;99.90;;;;;;5020961;28;20178;-51
2023/08/08 02:56:11;;;;;;;12.93;12.23;;;13.00;99.90;;;;;;5039573;28;20201;-52
2023/08/08 02:58:37;;;;;;;13.00;12.30;;;13.00;99.90;;;;;;5020296;28;20285;-55
2023/08/08 03:01:02;;;;;;;13.43;12.50;;;13.00;99.90;;;;;;5037070;28;20582;-51
2023/08/08 03:03:28;;;;;;;13.13;12.37;;;12.90;99.90;;;;;;5037448;28;20211;-51
2023/08/08 03:05:54;;;;;;;12.20;11.60;;;12.90;99.90;;;;;;5042516;28;20818;-55
2023/08/08 03:08:19;;;;;;;12.97;12.27;;;12.90;99.90;;;;;;5042512;28;20529;-53
2023/08/08 03:10:45;;;;;;;13.07;12.37;;;12.90;99.90;;;;;;5042968;28;20201;-49
2023/08/08 03:13:10;;;;;;;12.70;11.90;;;13.00;99.90;;;;;;5041496;28;20240;-53
2023/08/08 03:15:36;;;;;;;13.43;12.63;;;13.00;99.90;;;;;;5042909;28;20675;-54
2023/08/08 03:18:03;;;;;;;13.40;12.60;;;12.90;99.90;;;;;;5042777;28;20269;-53
2023/08/08 03:20:29;;;;;;;12.57;11.77;;;12.90;99.90;;;;;;5042410;28;20981;-49
2023/08/08 03:22:54;;;;;;;12.70;12.00;;;12.90;99.90;;;;;;5042450;28;20499;-52
2023/08/08 03:25:20;;;;;;;11.33;10.63;;;12.80;99.90;;;;;;5040306;28;20222;-54
2023/08/08 03:27:45;;;;;;;12.70;12.00;;;12.90;99.90;;;;;;5041973;28;20216;-56
2023/08/08 03:30:12;;;;;;;12.90;12.20;;;12.80;99.90;;;;;;5024528;28;20193;-55
2023/08/08 03:32:37;;;;;;;12.83;12.10;;;12.80;99.90;;;;;;5042755;28;20303;-53
2023/08/08 03:35:04;;;;;;;12.83;12.13;;;12.80;99.90;;;;;;5039683;28;20446;-45
2023/08/08 03:37:30;;;;;;;11.77;11.17;;;12.70;99.90;;;;;;5041494;28;20182;-54
2023/08/08 03:39:55;;;;;;;13.13;12.43;;;12.70;99.90;;;;;;5041444;28;20524;-50
2023/08/08 03:42:21;;;;;;;11.57;11.07;;;12.70;99.90;;;;;;5042224;28;20223;-51
2023/08/08 03:44:46;;;;;;;12.23;11.53;;;12.70;99.90;;;;;;5040524;28;20194;-55
2023/08/08 03:47:12;;;;;;;12.17;11.40;;;12.60;99.90;;;;;;5040769;28;20217;-52
2023/08/08 03:49:38;;;;;;;13.17;12.47;;;12.60;99.90;;;;;;5042238;28;20185;-49
2023/08/08 03:52:04;;;;;;;14.47;13.67;;;12.60;99.90;;;;;;5042431;28;20186;-52
2023/08/08 03:54:30;;;;;;;12.50;11.80;;;12.60;99.90;;;;;;5039944;28;20259;-53
2023/08/08 03:56:55;;;;;;;12.93;12.23;;;12.60;99.90;;;;;;5040596;28;20444;-52
2023/08/08 03:59:21;;;;;;;12.73;11.97;;;12.60;99.90;;;;;;5042101;28;20420;-54
2023/08/08 04:01:47;;;;;;;13.30;12.60;;;12.70;99.90;;;;;;5040326;28;20197;-55
2023/08/08 04:04:12;;;;;;;13.10;12.20;;;12.60;99.90;;;;;;5015095;28;20181;-55
2023/08/08 04:06:38;;;;;;;11.97;11.27;;;12.60;99.90;;;;;;5041806;28;20201;-52
2023/08/08 04:09:03;;;;;;;13.30;12.60;;;12.50;99.90;;;;;;5041523;28;20182;-54
2023/08/08 04:11:29;;;;;;;11.70;11.10;;;12.60;99.90;;;;;;5042086;28;20280;-50
2023/08/08 04:13:55;;;;;;;13.10;12.40;;;12.50;99.90;;;;;;5041224;28;20690;-50
2023/08/08 04:16:20;;;;;;;12.50;11.70;;;12.60;99.90;;;;;;5040839;28;20624;-54
2023/08/08 04:18:46;;;;;;;12.67;11.97;;;12.70;99.90;;;;;;5041528;28;20272;-53
2023/08/08 04:21:11;;;;;;;13.20;12.40;;;12.70;99.90;;;;;;5041788;28;20185;-55
2023/08/08 04:23:37;;;;;;;12.70;12.00;;;12.80;99.90;;;;;;5040490;28;20190;-54
2023/08/08 04:26:03;;;;;;;13.23;12.43;;;12.80;99.90;;;;;;5041554;28;20214;-54
2023/08/08 04:28:28;;;;;;;12.50;11.90;;;12.90;99.90;;;;;;5040807;28;20231;-53
2023/08/08 04:30:54;;;;;;;13.00;12.30;;;12.90;99.90;;;;;;5041391;28;20193;-55
2023/08/08 04:33:19;;;;;;;12.17;11.53;;;13.00;99.90;;;;;;5018502;28;20691;-51
2023/08/08 04:35:45;;;;;;;12.90;12.30;;;13.00;99.90;;;;;;5040404;28;20292;-52
2023/08/08 04:38:13;;;;;;;12.83;12.23;;;13.10;99.90;;;;;;5038426;28;20193;-53
2023/08/08 04:40:39;;;;;;;12.40;11.80;;;13.10;99.90;;;;;;5040522;28;20556;-54
2023/08/08 04:43:04;;;;;;;12.43;11.83;;;13.20;99.90;;;;;;5027658;28;20444;-48
2023/08/08 04:45:30;;;;;;;12.37;11.77;;;13.20;99.90;;;;;;5038044;28;20217;-54
2023/08/08 04:47:55;;;;;;;13.20;12.50;;;13.20;99.90;;;;;;5040593;28;20193;-49
2023/08/08 04:50:21;;;;;;;13.57;12.67;;;13.30;99.90;;;;;;5041352;28;20650;-54
2023/08/08 04:52:47;;;;;;;13.20;12.40;;;13.40;99.90;;;;;;5041299;28;20186;-54
2023/08/08 04:55:12;;;;;;;13.50;12.70;;;13.40;99.90;;;;;;5041112;28;20644;-52
2023/08/08 04:57:38;;;;;;;13.53;12.73;;;13.40;99.90;;;;;;5040581;28;20580;-48
2023/08/08 05:00:07;;;;;;;13.60;12.80;;;13.40;99.90;;;;;;5041067;28;20243;-55
2023/08/08 05:02:34;;;;;;;13.03;12.33;;;13.50;99.90;;;;;;5040392;28;20182;-53
2023/08/08 05:05:00;;;;;;;13.23;12.50;;;13.60;99.90;;;;;;5040652;28;21059;-55
2023/08/08 05:07:26;;;;;;;12.80;12.20;;;13.60;99.90;;;;;;5040877;28;20485;-54
2023/08/08 05:09:52;;;;;;;13.87;13.17;;;13.60;99.90;;;;;;5040726;28;20455;-54
2023/08/08 05:12:17;;;;;;;13.37;12.57;;;13.60;99.90;;;;;;5040723;28;20420;-52
2023/08/08 05:14:43;;;;;;;13.20;12.30;;;13.60;99.90;;;;;;5040574;28;20199;-55
2023/08/08 05:17:09;;;;;;;13.30;12.53;;;13.60;99.90;;;;;;5040241;28;20687;-52
2023/08/08 05:19:34;;;;;;;12.53;11.83;;;13.60;99.90;;;;;;5040776;28;20200;-52
2023/08/08 05:22:00;;;;;;;13.00;12.30;;;13.70;99.90;;;;;;5040573;28;20898;-53
2023/08/08 05:24:26;;;;;;;13.60;12.67;;;13.70;99.90;;;;;;5040260;28;20248;-51
2023/08/08 05:26:53;;;;;;;13.07;12.47;;;13.70;99.90;;;;;;5040069;28;20213;-52
2023/08/08 05:29:19;;;;;;;13.03;12.33;;;13.70;99.90;;;;;;5038929;28;20562;-51
2023/08/08 05:31:45;;;;;;;13.40;12.70;;;13.90;99.90;;;;;;5040067;28;20440;-47
2023/08/08 05:34:11;;;;;;;13.90;13.03;;;14.00;99.90;;;;;;5039952;28;20813;-55
2023/08/08 05:36:36;;;;;;;13.13;12.40;;;14.10;99.90;;;;;;5040000;28;20866;-54
2023/08/08 05:39:02;;;;;;;13.67;12.87;;;14.20;99.90;;;;;;5040460;28;20189;-54
2023/08/08 05:41:28;;;;;;;13.47;12.63;;;14.40;99.90;;;;;;5040005;28;20508;-56
2023/08/08 05:43:53;;;;;;;13.27;12.57;;;14.60;99.90;;;;;;5040571;28;20427;-52
2023/08/08 05:46:19;;;;;;;13.10;12.10;;;14.70;99.90;;;;;;5039797;28;20781;-48
2023/08/08 05:48:46;;;;;;;12.50;11.90;;;14.90;99.90;;;;;;5039970;28;20563;-52
2023/08/08 05:51:12;;;;;;;12.90;12.10;;;15.00;99.90;;;;;;5040161;28;20647;-54
2023/08/08 05:53:38;;;;;;;12.70;12.00;;;15.10;99.90;;;;;;5040144;28;20469;-51
2023/08/08 05:56:04;;;;;;;12.63;12.03;;;15.20;99.90;;;;;;5040046;28;20189;-56
2023/08/08 05:58:30;;;;;;;12.97;12.27;;;15.20;99.90;;;;;;5039365;28;20444;-52
2023/08/08 06:00:55;;;;;;;12.80;12.20;;;15.30;99.90;;;;;;5040209;28;20430;-51
2023/08/08 06:03:21;;;;;;;12.37;11.67;;;15.20;99.90;;;;;;5039932;28;20189;-52
2023/08/08 06:05:47;;;;;;;12.57;11.97;;;15.10;99.90;;;;;;5039466;28;20186;-53
2023/08/08 06:08:13;;;;;;;12.40;11.80;;;15.10;99.90;;;;;;5039900;28;20194;-53
2023/08/08 06:10:39;;;;;;;12.40;11.80;;;15.10;99.90;;;;;;5039524;28;20189;-49
2023/08/08 06:13:05;;;;;;;12.20;11.60;;;15.10;99.90;;;;;;5039432;28;20428;-51
2023/08/08 06:15:30;;;;;;;12.50;11.90;;;15.10;99.90;;;;;;5039660;28;20691;-51
2023/08/08 06:17:57;;;;;;;12.33;11.53;;;15.10;99.90;;;;;;5019290;28;20228;-55
2023/08/08 06:20:22;;;;;;;12.20;11.60;;;15.10;99.90;;;;;;5038693;28;20186;-53
2023/08/08 06:22:49;;;;;;;12.30;11.70;;;15.10;99.90;;;;;;5039129;28;20456;-50
2023/08/08 06:25:14;;;;;;;12.70;12.00;;;15.10;99.90;;;;;;5039061;28;20229;-52
2023/08/08 06:27:40;;;;;;;12.50;11.90;;;15.00;99.90;;;;;;5039742;28;20467;-56
2023/08/08 06:30:08;;;;;;;12.80;12.10;;;15.10;99.90;;;;;;5038237;28;20715;-51
2023/08/08 06:32:33;;;;;;;12.00;11.40;;;15.10;99.90;;;;;;5039329;28;20789;-53
2023/08/08 06:34:59;;;;;;;12.30;11.70;;;15.10;99.90;;;;;;5039272;28;20420;-52
2023/08/08 06:37:24;;;;;;;12.57;11.87;;;15.10;99.90;;;;;;5039587;28;20193;-49
2023/08/08 06:39:50;;;;;;;12.80;12.10;;;15.10;99.90;;;;;;5043589;28;20185;-52
2023/08/08 06:42:16;;;;;;;12.67;12.07;;;15.10;99.90;;;;;;5018608;28;20247;-48
2023/08/08 06:44:43;;;;;;;13.20;12.57;;;15.20;99.90;;;;;;5045981;28;20212;-54
2023/08/08 06:47:10;;;;;;;12.50;11.80;;;15.10;99.90;;;;;;5045932;28;20201;-51
2023/08/08 06:49:36;;;;;;;12.80;12.10;;;15.10;99.90;;;;;;5045923;28;20420;-53
2023/08/08 06:52:02;;;;;;;12.57;11.97;;;15.10;99.90;;;;;;5045775;28;20423;-50
2023/08/08 06:54:30;;;;;;;12.83;12.00;;;15.10;99.90;;;;;;5045838;28;20265;-52
2023/08/08 06:56:57;;;;;;;12.67;12.07;;;15.10;99.90;;;;;;5045138;28;20181;-51
2023/08/08 06:59:23;;;;;;;12.43;11.83;;;15.10;99.90;;;;;;5045855;28;20427;-47
2023/08/08 07:01:50;;;;;;;12.80;12.10;;;15.20;99.90;;;;;;5046308;28;20909;-55
2023/08/08 07:04:17;;;;;;;12.70;12.10;;;15.20;99.90;;;;;;5045808;28;20428;-54
2023/08/08 07:06:43;;;;;;;12.67;11.90;;;15.30;99.90;;;;;;5045256;28;20455;-55
2023/08/08 07:09:10;;;;;;;13.20;12.27;;;15.30;99.90;;;;;;5045818;28;20469;-49
2023/08/08 07:11:39;;;;;;;12.30;11.60;;;15.30;99.90;;;;;;5045678;28;20428;-56
2023/08/08 07:14:04;;;;;;;12.13;11.53;;;15.40;99.90;;;;;;5045666;28;20412;-52
2023/08/08 07:16:30;;;;;;;12.30;11.70;;;15.40;99.90;;;;;;5027607;28;20790;-50
2023/08/08 07:18:56;;;;;;;12.37;11.67;;;15.40;99.90;;;;;;5045826;28;20197;-56
2023/08/08 07:21:21;;;;;;;12.03;11.43;;;15.40;99.90;;;;;;5045329;28;20720;-55
2023/08/08 07:23:47;;;;;;;13.50;12.70;;;15.40;99.90;;;;;;5027732;28;20295;-51
2023/08/08 07:26:12;;;;;;;12.60;12.00;;;15.40;99.90;;;;;;5044807;28;20288;-50
2023/08/08 07:28:39;;;;;;;11.73;11.23;;;15.40;99.90;;;;;;5027995;28;20247;-50
2023/08/08 07:31:04;;;;;;;12.60;12.00;;;15.40;99.90;;;;;;5045890;28;20185;-55
2023/08/08 07:33:30;;;;;;;12.73;11.93;;;15.30;99.90;;;;;;5045450;28;20424;-56
2023/08/08 07:35:56;;;;;;;13.00;12.30;;;15.40;99.90;;;;;;5045403;28;20796;-52
2023/08/08 07:38:21;;;;;;;13.30;12.60;;;15.30;99.90;;;;;;5045855;28;20300;-52
2023/08/08 07:40:48;;;;;;;11.87;11.27;;;15.40;99.90;;;;;;5045919;28;20197;-50
2023/08/08 07:43:13;;;;;;;12.87;12.10;;;15.40;99.90;;;;;;5045628;28;20196;-54
2023/08/08 07:45:39;;;;;;;13.10;12.30;;;15.50;99.90;;;;;;5045045;28;21317;-40
2023/08/08 07:48:05;;;;;;;11.90;11.30;;;15.50;99.90;;;;;;5045757;28;20718;-41
2023/08/08 07:50:31;;;;;;;13.03;12.03;;;15.60;99.90;;;;;;5043240;28;20189;-42
2023/08/08 07:52:57;;;;;;;12.83;12.23;;;15.80;99.90;;;;;;5042440;28;20427;-42
2023/08/08 07:55:22;;;;;;;12.20;11.60;;;16.00;99.90;;;;;;5042650;28;20882;-41
2023/08/08 07:57:48;;;;;;;12.13;11.47;;;16.10;99.90;;;;;;5040753;28;20185;-42
2023/08/08 08:00:14;;;;;;;12.23;11.60;;;16.30;99.90;;;;;;5039630;28;20185;-44
2023/08/08 08:02:42;;;;;;;12.63;12.03;;;16.30;99.90;;;;;;5041618;28;20312;-41
2023/08/08 08:05:08;;;;;;;12.33;11.73;;;16.40;99.90;;;;;;5041496;28;20601;-41
2023/08/08 08:07:35;;;;;;;12.57;11.97;;;16.50;99.90;;;;;;5040928;28;20464;-40
2023/08/08 08:10:05;;;;;;;12.20;11.60;;;16.60;99.90;;;;;;5042373;28;20416;-43
2023/08/08 08:12:31;;;;;;;12.37;11.53;;;16.60;99.90;;;;;;5042235;28;20412;-40
2023/08/08 08:14:57;;;;;;;12.23;11.63;;;16.70;99.90;;;;;;5041582;28;20796;-41
2023/08/08 08:17:23;;;;;;;12.20;11.70;;;16.80;99.90;;;;;;5041860;28;20439;-40
2023/08/08 08:19:50;;;;;;;12.40;11.70;;;16.80;99.90;;;;;;5041675;28;21053;-40
2023/08/08 08:22:15;;;;;;;12.27;11.67;;;16.90;99.90;;;;;;5041799;28;20208;-39
2023/08/08 08:24:41;;;;;;;12.20;11.60;;;17.00;99.90;;;;;;5041578;28;20472;-40
2023/08/08 08:27:07;;;;;;;11.50;10.90;;;17.30;99.90;;;;;;5039621;28;20328;-40
2023/08/08 08:29:33;;;;;;;12.63;11.93;;;17.20;99.90;;;;;;5041742;28;20185;-42
2023/08/08 08:31:58;;;;;;;12.10;11.50;;;17.20;99.90;;;;;;5023466;28;20193;-43
2023/08/08 08:34:24;;;;;;;12.67;11.97;;;17.30;99.90;;;;;;5041279;28;20413;-39
2023/08/08 08:36:49;;;;;;;11.83;11.23;;;17.40;99.90;;;;;;5041533;28;20287;-40
2023/08/08 08:39:15;;;;;;;11.30;10.80;;;17.30;99.90;;;;;;5041339;28;20178;-42
2023/08/08 08:41:41;;;;;;;11.37;10.87;;;17.30;99.90;;;;;;5041579;28;20201;-40
2023/08/08 08:44:07;;;;;;;11.67;11.17;;;17.40;99.90;;;;;;5023323;28;20209;-41
2023/08/08 08:46:36;;;;;;;11.97;11.47;;;17.40;99.90;;;;;;5041628;28;20198;-40
2023/08/08 08:49:05;;;;;;;11.50;10.90;;;17.50;99.90;;;;;;5041123;28;20483;-41
2023/08/08 08:51:31;;;;;;;11.77;11.17;;;17.60;99.90;;;;;;5041753;28;20416;-44
2023/08/08 08:53:58;;;;;;;11.70;11.10;;;17.60;99.90;;;;;;5040834;28;20416;-39
2023/08/08 08:56:24;;;;;;;12.27;11.60;;;17.80;99.90;;;;;;5041081;28;20194;-40
2023/08/08 08:58:51;;;;;;;10.77;10.27;;;17.90;99.90;;;;;;5040799;28;20480;-40
2023/08/08 09:01:17;;;;;;;11.73;11.13;;;18.00;99.90;;;;;;5041115;28;20486;-41
2023/08/08 09:03:45;;;;;;;10.83;10.33;;;18.00;99.90;;;;;;5040774;28;20439;-40
2023/08/08 09:06:12;;;;;;;12.03;11.33;;;18.10;99.40;;;;;;5041051;28;20447;-40
2023/08/08 09:08:37;;;;;;;11.13;10.63;;;17.90;99.60;;;;;;5041084;28;20427;-44
2023/08/08 09:11:03;;;;;;;10.30;9.90;;;17.80;99.90;;;;;;5040953;28;20420;-40
2023/08/08 09:13:39;;;;;;;11.53;10.97;;;17.90;99.90;;;;;;5040783;28;20186;-42
2023/08/08 09:16:08;;;;;;;10.53;10.10;;;18.00;99.90;;;;;;5040816;28;20177;-40
2023/08/08 09:18:38;;;;;;;11.93;11.33;;;17.60;99.90;;;;;;5040990;28;20513;-40
2023/08/08 09:21:04;;;;;;;11.50;11.00;;;17.50;99.90;;;;;;5040722;28;20894;-40
2023/08/08 09:23:30;;;;;;;11.77;11.07;;;17.50;99.90;;;;;;5040267;28;20428;-40
2023/08/08 09:25:55;;;;;;;11.40;10.90;;;17.50;99.90;;;;;;5040583;28;20954;-46
2023/08/08 09:28:21;;;;;;;11.90;11.30;;;17.40;99.90;;;;;;5040232;28;20190;-39
2023/08/08 09:30:47;;;;;;;12.60;12.00;;;17.50;99.90;;;;;;5040426;28;20185;-41
2023/08/08 09:33:12;;;;;;;11.60;11.00;;;17.50;99.90;;;;;;5040433;28;20185;-39
2023/08/08 09:35:39;;;;;;;11.83;11.23;;;17.40;99.90;;;;;;5039403;28;20218;-39
2023/08/08 09:38:05;;;;;;;11.70;11.10;;;17.30;99.90;;;;;;5040346;28;20174;-40
2023/08/08 09:40:31;;;;;;;11.20;10.60;;;17.20;99.90;;;;;;5040676;28;20443;-40
2023/08/08 09:42:58;;;;;;;11.53;11.03;;;17.20;99.90;;;;;;5040820;28;20692;-41
2023/08/08 09:45:24;;;;;;;11.50;10.90;;;17.20;99.90;;;;;;5040171;28;20546;-49
2023/08/08 09:47:52;;;;;;;11.67;11.07;;;17.20;99.90;;;;;;5039914;28;20459;-53
2023/08/08 09:50:19;;;;;;;12.50;11.90;;;17.30;99.90;;;;;;5040804;28;20566;-53
2023/08/08 09:52:46;;;;;;;11.10;10.50;;;17.30;99.90;;;;;;5039894;28;20978;-50
2023/08/08 09:55:13;;;;;;;11.47;10.93;;;17.30;99.90;;;;;;5039858;28;20493;-53
2023/08/08 09:57:40;;;;;;;11.27;10.77;;;17.30;99.90;;;;;;5039911;28;20688;-53
2023/08/08 10:00:15;;;;;;;12.00;11.40;;;17.30;99.90;;;;;;5040188;28;20825;-51
2023/08/08 10:02:45;;;;;;;11.90;11.40;;;17.30;99.90;;;;;;5040002;28;20419;-51
2023/08/08 10:05:13;;;;;;;12.50;11.80;;;17.40;99.90;;;;;;5039670;28;20515;-54
2023/08/08 10:07:40;;;;;;;11.53;10.97;;;17.50;99.90;;;;;;5039732;28;20459;-53
2023/08/08 10:10:08;;;;;;;11.33;10.63;;;17.70;99.90;;;;;;5039854;28;20882;-50
2023/08/08 10:12:33;;;;;;;11.90;11.30;;;17.70;99.90;;;;;;5021842;28;20482;-55
2023/08/08 10:15:00;;;;;;;11.93;11.40;;;17.60;99.90;;;;;;5039363;28;20926;-53
2023/08/08 10:17:25;;;;;;;11.90;11.20;;;17.70;99.90;;;;;;5039539;28;20178;-52
2023/08/08 10:19:55;;;;;;;12.20;11.60;;;17.60;99.90;;;;;;5039741;28;20424;-55
2023/08/08 10:22:25;;;;;;;11.83;11.30;;;17.80;99.90;;;;;;5039500;28;20190;-51
2023/08/08 10:24:54;;;;;;;12.07;11.40;;;17.90;99.90;;;;;;5039019;28;20502;-50
2023/08/08 10:27:35;;;;;;;11.73;11.20;;;18.00;99.90;;;;;;5039984;28;20521;-48
2023/08/08 10:30:10;;;;;;;10.40;9.90;;;18.10;99.90;;;;;;5039472;28;20443;-50
2023/08/08 10:32:43;;;;;;;11.60;11.10;;;18.10;99.90;;;;;;5039536;28;20443;-49
2023/08/08 10:35:11;;;;;;;12.00;11.40;;;18.30;99.90;;;;;;5020963;28;20486;-49
2023/08/08 10:37:37;;;;;;;11.73;11.13;;;18.30;99.60;;;;;;5054346;28;20420;-45
2023/08/08 10:40:05;;;;;;;11.00;10.40;;;18.40;99.30;;;;;;5020708;28;20424;-51
2023/08/08 10:42:31;;;;;;;10.60;10.10;;;18.60;98.20;;;;;;5038761;28;20780;-48
2023/08/08 10:44:59;;;;;;;11.60;11.00;;;18.70;96.90;;;;;;5037256;28;20428;-53
2023/08/08 10:47:27;;;;;;;11.70;11.10;;;18.80;97.10;;;;;;5038960;28;20472;-50
2023/08/08 10:50:06;;;;;;;11.13;10.63;;;18.80;96.40;;;;;;5039064;28;20490;-52
2023/08/08 10:52:35;;;;;;;11.63;11.00;;;19.00;95.80;;;;;;5039512;28;20419;-54
2023/08/08 10:55:01;;;;;;;11.03;10.43;;;19.00;96.50;;;;;;5038925;28;20897;-52
2023/08/08 10:57:29;;;;;;;11.00;10.40;;;19.20;94.30;;;;;;5039046;28;20427;-49
2023/08/08 10:59:54;;;;;;;11.23;10.63;;;19.10;94.00;;;;;;5039348;28;20919;-48
2023/08/08 11:02:21;;;;;;;12.00;11.40;;;19.10;94.20;;;;;;5038949;28;20431;-50
2023/08/08 11:04:49;;;;;;;11.33;10.83;;;18.90;94.00;;;;;;5039087;28;20289;-52
2023/08/08 11:07:15;;;;;;;10.50;10.00;;;18.90;94.60;;;;;;5039079;28;20833;-51
2023/08/08 11:09:42;;;;;;;11.60;11.00;;;18.90;92.40;;;;;;5038744;28;20469;-53
2023/08/08 11:12:15;;;;;;;11.10;10.50;;;18.90;91.50;;;;;;5038353;28;20440;-51
2023/08/08 11:14:40;;;;;;;12.00;11.30;;;18.90;92.50;;;;;;5038904;28;20843;-48
2023/08/08 11:17:06;;;;;;;11.97;11.37;;;19.00;92.40;;;;;;5021612;28;20482;-56
2023/08/08 11:19:39;;;;;;;12.07;11.47;;;18.90;91.10;;;;;;5039373;28;20185;-52
2023/08/08 11:22:10;;;;;;;12.83;12.00;;;18.80;91.10;;;;;;5039350;28;20704;-48
2023/08/08 11:24:36;;;;;;;12.20;11.60;;;18.80;93.30;;;;;;5038559;28;20478;-48
2023/08/08 11:27:01;;;;;;;10.90;10.40;;;19.00;93.40;;;;;;5041658;28;20456;-53
2023/08/08 11:29:30;;;;;;;12.43;11.83;;;19.00;90.50;;;;;;5042239;28;20174;-53
2023/08/08 11:31:57;;;;;;;12.40;11.80;;;19.00;89.10;;;;;;5042504;28;20181;-51
2023/08/08 11:34:22;;;;;;;11.87;11.27;;;19.00;87.90;;;;;;5042851;28;20423;-52
2023/08/08 11:36:48;;;;;;;11.67;11.07;;;19.00;87.40;;;;;;5042614;28;20416;-50
2023/08/08 11:39:14;;;;;;;12.50;11.90;;;18.90;89.60;;;;;;5042391;28;20294;-54
2023/08/08 11:41:41;;;;;;;11.70;11.10;;;19.00;91.20;;;;;;5041831;28;20980;-52
2023/08/08 11:44:08;;;;;;;11.80;11.30;;;19.20;90.00;;;;;;5041811;28;20455;-47
2023/08/08 11:46:33;;;;;;;11.83;11.10;;;19.30;88.60;;;;;;5023826;28;20955;-50
2023/08/08 11:49:04;;;;;;;11.73;11.17;;;19.50;88.70;;;;;;5042528;28;20409;-49
2023/08/08 11:51:29;;;;;;;11.73;11.23;;;19.80;88.50;;;;;;5042327;28;20182;-54
2023/08/08 11:53:55;;;;;;;11.40;10.90;;;20.10;87.80;;;;;;5042105;28;20913;-54
2023/08/08 11:56:21;;;;;;;10.63;10.23;;;20.50;84.60;;;;;;5024423;28;20182;-55
2023/08/08 11:58:53;;;;;;;11.20;10.70;;;21.10;77.30;;;;;;5042119;28;20178;-52
2023/08/08 12:01:21;;;;;;;11.57;10.93;;;22.10;72.30;;;;;;5042415;28;20948;-52
2023/08/08 12:03:47;;;;;;;11.13;10.63;;;22.40;58.20;;;;;;5042086;28;20464;-51
2023/08/08 12:06:17;;;;;;;11.37;10.80;;;22.00;55.90;;;;;;5041151;28;20555;-54
2023/08/08 12:08:44;;;;;;;10.80;10.30;;;22.10;55.30;;;;;;5041612;28;20178;-50
2023/08/08 12:11:11;;;;;;;11.70;11.20;;;21.50;54.10;;;;;;5023559;28;21028;-52
2023/08/08 12:13:39;;;;;;;11.90;11.20;;;22.00;54.80;;;;;;5041841;28;20427;-51
2023/08/08 12:16:06;;;;;;;11.07;10.57;;;21.90;54.70;;;;;;5023613;28;20441;-53
2023/08/08 12:18:32;;;;;;;11.63;11.03;;;22.00;54.40;;;;;;5041739;28;20938;-56
2023/08/08 12:20:58;;;;;;;11.20;10.70;;;22.10;56.40;;;;;;5041735;28;20435;-52
2023/08/08 12:23:26;;;;;;;11.93;11.30;;;22.40;55.40;;;;;;5041388;28;20426;-50